sensor_id;sensor_type;location;lat;lon;timestamp;P1;durP1;ratioP1;P2;durP2;ratioP2
6979;SDS011;3530;52.832;10.680;2022-11-24T00:01:44;4.68;;;4.13;;
6979;SDS011;3530;52.832;10.680;2022-11-24T00:04:30;4.90;;;4.20;;
6979;SDS011;3530;52.832;10.680;2022-11-24T00:07:15;6.28;;;5.05;;
6979;SDS011;3530;52.832;10.680;2022-11-24T00:10:01;6.53;;;4.50;;
6979;SDS011;3530;52.832;10.680;2022-11-24T00:12:47;4.97;;;4.53;;
6979;SDS011;3530;52.832;10.680;2022-11-24T00:15:32;4.70;;;4.40;;
6979;SDS011;3530;52.832;10.680;2022-11-24T00:18:18;5.50;;;5.00;;
6979;SDS011;3530;52.832;10.680;2022-11-24T00:21:03;5.10;;;4.60;;
6979;SDS011;3530;52.832;10.680;2022-11-24T00:23:49;4.68;;;4.20;;
6979;SDS011;3530;52.832;10.680;2022-11-24T00:26:35;4.40;;;4.00;;
6979;SDS011;3530;52.832;10.680;2022-11-24T00:29:21;5.40;;;4.55;;
6979;SDS011;3530;52.832;10.680;2022-11-24T00:32:07;4.65;;;4.25;;
6979;SDS011;3530;52.832;10.680;2022-11-24T00:34:53;6.75;;;4.63;;
6979;SDS011;3530;52.832;10.680;2022-11-24T00:37:38;7.50;;;6.10;;
6979;SDS011;3530;52.832;10.680;2022-11-24T00:40:24;5.20;;;4.80;;
6979;SDS011;3530;52.832;10.680;2022-11-24T00:43:10;5.32;;;4.88;;
6979;SDS011;3530;52.832;10.680;2022-11-24T00:45:55;5.15;;;4.75;;
6979;SDS011;3530;52.832;10.680;2022-11-24T00:48:41;5.25;;;4.50;;
6979;SDS011;3530;52.832;10.680;2022-11-24T00:51:27;5.47;;;4.78;;
6979;SDS011;3530;52.832;10.680;2022-11-24T00:54:14;8.38;;;4.80;;
6979;SDS011;3530;52.832;10.680;2022-11-24T00:57:00;5.93;;;4.95;;
6979;SDS011;3530;52.832;10.680;2022-11-24T00:59:45;4.53;;;4.15;;
6979;SDS011;3530;52.832;10.680;2022-11-24T01:02:31;4.40;;;4.10;;
6979;SDS011;3530;52.832;10.680;2022-11-24T01:05:17;4.80;;;4.43;;
6979;SDS011;3530;52.832;10.680;2022-11-24T01:08:03;5.15;;;4.75;;
6979;SDS011;3530;52.832;10.680;2022-11-24T01:10:49;6.05;;;5.13;;
6979;SDS011;3530;52.832;10.680;2022-11-24T01:13:34;7.68;;;4.90;;
6979;SDS011;3530;52.832;10.680;2022-11-24T01:16:21;5.88;;;5.32;;
6979;SDS011;3530;52.832;10.680;2022-11-24T01:19:08;5.22;;;4.80;;
6979;SDS011;3530;52.832;10.680;2022-11-24T01:21:54;5.90;;;4.85;;
6979;SDS011;3530;52.832;10.680;2022-11-24T01:24:39;5.90;;;5.13;;
6979;SDS011;3530;52.832;10.680;2022-11-24T01:27:25;4.97;;;4.57;;
6979;SDS011;3530;52.832;10.680;2022-11-24T01:30:11;6.82;;;4.57;;
6979;SDS011;3530;52.832;10.680;2022-11-24T01:32:56;6.10;;;4.90;;
6979;SDS011;3530;52.832;10.680;2022-11-24T01:35:42;5.95;;;4.63;;
6979;SDS011;3530;52.832;10.680;2022-11-24T01:38:28;4.47;;;4.10;;
6979;SDS011;3530;52.832;10.680;2022-11-24T01:41:14;5.15;;;4.50;;
6979;SDS011;3530;52.832;10.680;2022-11-24T01:44:18;5.07;;;4.78;;
6979;SDS011;3530;52.832;10.680;2022-11-24T01:47:12;4.30;;;4.00;;
6979;SDS011;3530;52.832;10.680;2022-11-24T01:50:13;5.55;;;4.53;;
6979;SDS011;3530;52.832;10.680;2022-11-24T01:53:00;5.07;;;4.22;;
6979;SDS011;3530;52.832;10.680;2022-11-24T01:55:45;4.50;;;3.95;;
6979;SDS011;3530;52.832;10.680;2022-11-24T01:58:31;4.68;;;4.28;;
6979;SDS011;3530;52.832;10.680;2022-11-24T02:01:17;4.50;;;4.10;;
6979;SDS011;3530;52.832;10.680;2022-11-24T02:04:03;4.47;;;4.03;;
6979;SDS011;3530;52.832;10.680;2022-11-24T02:06:51;6.68;;;4.15;;
6979;SDS011;3530;52.832;10.680;2022-11-24T02:09:44;4.60;;;4.30;;
6979;SDS011;3530;52.832;10.680;2022-11-24T02:12:33;5.53;;;3.65;;
6979;SDS011;3530;52.832;10.680;2022-11-24T02:15:19;4.25;;;3.95;;
6979;SDS011;3530;52.832;10.680;2022-11-24T02:18:05;3.90;;;3.60;;
6979;SDS011;3530;52.832;10.680;2022-11-24T02:20:51;6.55;;;3.92;;
6979;SDS011;3530;52.832;10.680;2022-11-24T02:26:47;4.35;;;3.95;;
6979;SDS011;3530;52.832;10.680;2022-11-24T02:29:33;4.43;;;4.03;;
6979;SDS011;3530;52.832;10.680;2022-11-24T02:32:19;5.93;;;3.78;;
6979;SDS011;3530;52.832;10.680;2022-11-24T02:35:07;5.68;;;3.67;;
6979;SDS011;3530;52.832;10.680;2022-11-24T02:37:53;4.25;;;3.65;;
6979;SDS011;3530;52.832;10.680;2022-11-24T02:40:40;6.35;;;3.47;;
6979;SDS011;3530;52.832;10.680;2022-11-24T02:43:29;4.70;;;4.35;;
6979;SDS011;3530;52.832;10.680;2022-11-24T02:46:18;4.25;;;3.85;;
6979;SDS011;3530;52.832;10.680;2022-11-24T02:49:04;3.72;;;3.45;;
6979;SDS011;3530;52.832;10.680;2022-11-24T02:51:50;4.57;;;3.90;;
6979;SDS011;3530;52.832;10.680;2022-11-24T02:54:35;3.83;;;3.53;;
6979;SDS011;3530;52.832;10.680;2022-11-24T02:57:21;3.58;;;3.33;;
6979;SDS011;3530;52.832;10.680;2022-11-24T03:00:08;5.40;;;3.60;;
6979;SDS011;3530;52.832;10.680;2022-11-24T03:02:54;6.38;;;4.00;;
6979;SDS011;3530;52.832;10.680;2022-11-24T03:05:39;5.93;;;5.22;;
6979;SDS011;3530;52.832;10.680;2022-11-24T03:08:25;5.43;;;4.97;;
6979;SDS011;3530;52.832;10.680;2022-11-24T03:11:11;5.00;;;4.38;;
6979;SDS011;3530;52.832;10.680;2022-11-24T03:13:56;4.90;;;3.70;;
6979;SDS011;3530;52.832;10.680;2022-11-24T03:16:42;8.30;;;4.60;;
6979;SDS011;3530;52.832;10.680;2022-11-24T03:19:28;4.45;;;3.80;;
6979;SDS011;3530;52.832;10.680;2022-11-24T03:22:13;4.53;;;3.67;;
6979;SDS011;3530;52.832;10.680;2022-11-24T03:24:59;5.90;;;4.30;;
6979;SDS011;3530;52.832;10.680;2022-11-24T03:27:45;4.55;;;4.15;;
6979;SDS011;3530;52.832;10.680;2022-11-24T03:30:31;7.85;;;4.03;;
6979;SDS011;3530;52.832;10.680;2022-11-24T03:33:17;3.92;;;3.63;;
6979;SDS011;3530;52.832;10.680;2022-11-24T03:36:03;4.45;;;4.03;;
6979;SDS011;3530;52.832;10.680;2022-11-24T03:38:49;4.13;;;3.40;;
6979;SDS011;3530;52.832;10.680;2022-11-24T03:41:35;3.75;;;3.45;;
6979;SDS011;3530;52.832;10.680;2022-11-24T03:44:21;3.40;;;3.20;;
6979;SDS011;3530;52.832;10.680;2022-11-24T03:47:06;3.85;;;3.50;;
6979;SDS011;3530;52.832;10.680;2022-11-24T03:49:52;3.63;;;3.38;;
6979;SDS011;3530;52.832;10.680;2022-11-24T03:52:38;5.55;;;3.83;;
6979;SDS011;3530;52.832;10.680;2022-11-24T03:55:23;6.97;;;4.45;;
6979;SDS011;3530;52.832;10.680;2022-11-24T03:58:09;6.63;;;4.57;;
6979;SDS011;3530;52.832;10.680;2022-11-24T04:00:55;6.05;;;5.50;;
6979;SDS011;3530;52.832;10.680;2022-11-24T04:03:41;4.15;;;3.75;;
6979;SDS011;3530;52.832;10.680;2022-11-24T04:06:27;5.70;;;3.92;;
6979;SDS011;3530;52.832;10.680;2022-11-24T04:09:12;4.80;;;4.35;;
6979;SDS011;3530;52.832;10.680;2022-11-24T04:11:58;9.43;;;6.40;;
6979;SDS011;3530;52.832;10.680;2022-11-24T04:15:02;4.68;;;4.20;;
6979;SDS011;3530;52.832;10.680;2022-11-24T04:17:48;4.57;;;3.97;;
6979;SDS011;3530;52.832;10.680;2022-11-24T04:20:35;6.32;;;5.47;;
6979;SDS011;3530;52.832;10.680;2022-11-24T04:23:20;9.35;;;7.88;;
6979;SDS011;3530;52.832;10.680;2022-11-24T04:26:06;10.50;;;8.02;;
6979;SDS011;3530;52.832;10.680;2022-11-24T04:28:52;4.68;;;4.38;;
6979;SDS011;3530;52.832;10.680;2022-11-24T04:31:37;5.70;;;3.63;;
6979;SDS011;3530;52.832;10.680;2022-11-24T04:34:23;3.92;;;3.65;;
6979;SDS011;3530;52.832;10.680;2022-11-24T04:37:09;4.38;;;4.07;;
6979;SDS011;3530;52.832;10.680;2022-11-24T04:39:55;4.82;;;4.10;;
6979;SDS011;3530;52.832;10.680;2022-11-24T04:42:40;8.30;;;4.55;;
6979;SDS011;3530;52.832;10.680;2022-11-24T04:45:26;10.05;;;5.55;;
6979;SDS011;3530;52.832;10.680;2022-11-24T04:48:12;7.78;;;5.20;;
6979;SDS011;3530;52.832;10.680;2022-11-24T04:50:57;4.32;;;4.03;;
6979;SDS011;3530;52.832;10.680;2022-11-24T04:53:43;5.47;;;4.55;;
6979;SDS011;3530;52.832;10.680;2022-11-24T04:56:28;5.78;;;4.57;;
6979;SDS011;3530;52.832;10.680;2022-11-24T04:59:14;4.30;;;3.90;;
6979;SDS011;3530;52.832;10.680;2022-11-24T05:02:00;4.47;;;3.78;;
6979;SDS011;3530;52.832;10.680;2022-11-24T05:04:46;4.00;;;3.67;;
6979;SDS011;3530;52.832;10.680;2022-11-24T05:07:32;5.10;;;4.60;;
6979;SDS011;3530;52.832;10.680;2022-11-24T05:10:17;5.15;;;4.63;;
6979;SDS011;3530;52.832;10.680;2022-11-24T05:13:21;5.13;;;4.18;;
6979;SDS011;3530;52.832;10.680;2022-11-24T05:16:07;4.35;;;3.78;;
6979;SDS011;3530;52.832;10.680;2022-11-24T05:18:52;4.15;;;3.75;;
6979;SDS011;3530;52.832;10.680;2022-11-24T05:21:38;4.85;;;4.43;;
6979;SDS011;3530;52.832;10.680;2022-11-24T05:24:24;4.20;;;3.80;;
6979;SDS011;3530;52.832;10.680;2022-11-24T05:27:10;7.47;;;4.63;;
6979;SDS011;3530;52.832;10.680;2022-11-24T05:29:55;10.93;;;8.32;;
6979;SDS011;3530;52.832;10.680;2022-11-24T05:32:41;6.60;;;5.35;;
6979;SDS011;3530;52.832;10.680;2022-11-24T05:35:27;8.32;;;6.85;;
6979;SDS011;3530;52.832;10.680;2022-11-24T05:38:12;6.72;;;5.57;;
6979;SDS011;3530;52.832;10.680;2022-11-24T05:41:02;6.07;;;5.40;;
6979;SDS011;3530;52.832;10.680;2022-11-24T05:43:49;5.60;;;4.07;;
6979;SDS011;3530;52.832;10.680;2022-11-24T05:46:34;4.65;;;4.25;;
6979;SDS011;3530;52.832;10.680;2022-11-24T05:49:20;5.00;;;4.22;;
6979;SDS011;3530;52.832;10.680;2022-11-24T05:52:06;4.05;;;3.65;;
6979;SDS011;3530;52.832;10.680;2022-11-24T05:54:51;6.85;;;4.55;;
6979;SDS011;3530;52.832;10.680;2022-11-24T05:57:37;4.78;;;4.20;;
6979;SDS011;3530;52.832;10.680;2022-11-24T06:00:22;4.18;;;3.80;;
6979;SDS011;3530;52.832;10.680;2022-11-24T06:03:09;4.57;;;4.18;;
6979;SDS011;3530;52.832;10.680;2022-11-24T06:05:55;4.47;;;4.07;;
6979;SDS011;3530;52.832;10.680;2022-11-24T06:08:40;4.03;;;3.72;;
6979;SDS011;3530;52.832;10.680;2022-11-24T06:11:26;9.70;;;4.38;;
6979;SDS011;3530;52.832;10.680;2022-11-24T06:14:11;4.30;;;3.95;;
6979;SDS011;3530;52.832;10.680;2022-11-24T06:16:57;6.10;;;3.92;;
6979;SDS011;3530;52.832;10.680;2022-11-24T06:19:43;5.32;;;4.22;;
6979;SDS011;3530;52.832;10.680;2022-11-24T06:22:32;4.90;;;4.10;;
6979;SDS011;3530;52.832;10.680;2022-11-24T06:25:17;8.75;;;4.63;;
6979;SDS011;3530;52.832;10.680;2022-11-24T06:28:03;7.78;;;5.80;;
6979;SDS011;3530;52.832;10.680;2022-11-24T06:30:49;6.78;;;4.85;;
6979;SDS011;3530;52.832;10.680;2022-11-24T06:33:35;9.77;;;5.63;;
6979;SDS011;3530;52.832;10.680;2022-11-24T06:36:21;9.27;;;4.50;;
6979;SDS011;3530;52.832;10.680;2022-11-24T06:39:08;5.93;;;4.28;;
6979;SDS011;3530;52.832;10.680;2022-11-24T06:41:54;11.80;;;4.93;;
6979;SDS011;3530;52.832;10.680;2022-11-24T06:44:40;7.07;;;4.80;;
6979;SDS011;3530;52.832;10.680;2022-11-24T06:47:26;12.60;;;5.13;;
6979;SDS011;3530;52.832;10.680;2022-11-24T06:50:11;5.68;;;5.10;;
6979;SDS011;3530;52.832;10.680;2022-11-24T06:52:57;8.68;;;4.78;;
6979;SDS011;3530;52.832;10.680;2022-11-24T06:55:43;13.00;;;5.22;;
6979;SDS011;3530;52.832;10.680;2022-11-24T06:58:29;8.07;;;5.40;;
6979;SDS011;3530;52.832;10.680;2022-11-24T07:01:18;13.60;;;5.85;;
6979;SDS011;3530;52.832;10.680;2022-11-24T07:04:05;11.25;;;5.53;;
6979;SDS011;3530;52.832;10.680;2022-11-24T07:06:51;6.32;;;4.30;;
6979;SDS011;3530;52.832;10.680;2022-11-24T07:09:36;8.82;;;4.45;;
6979;SDS011;3530;52.832;10.680;2022-11-24T07:12:22;5.03;;;4.45;;
6979;SDS011;3530;52.832;10.680;2022-11-24T07:15:08;8.75;;;5.10;;
6979;SDS011;3530;52.832;10.680;2022-11-24T07:17:54;17.25;;;5.35;;
6979;SDS011;3530;52.832;10.680;2022-11-24T07:20:40;4.88;;;4.40;;
6979;SDS011;3530;52.832;10.680;2022-11-24T07:23:25;7.05;;;5.05;;
6979;SDS011;3530;52.832;10.680;2022-11-24T07:26:11;6.00;;;4.93;;
6979;SDS011;3530;52.832;10.680;2022-11-24T07:28:57;8.63;;;4.72;;
6979;SDS011;3530;52.832;10.680;2022-11-24T07:31:42;6.13;;;4.30;;
6979;SDS011;3530;52.832;10.680;2022-11-24T07:34:30;7.03;;;4.43;;
6979;SDS011;3530;52.832;10.680;2022-11-24T07:37:15;4.95;;;4.32;;
6979;SDS011;3530;52.832;10.680;2022-11-24T07:40:01;6.57;;;4.07;;
6979;SDS011;3530;52.832;10.680;2022-11-24T07:42:47;6.38;;;4.22;;
6979;SDS011;3530;52.832;10.680;2022-11-24T07:45:32;4.95;;;4.32;;
6979;SDS011;3530;52.832;10.680;2022-11-24T07:48:18;8.68;;;5.32;;
6979;SDS011;3530;52.832;10.680;2022-11-24T07:51:04;5.15;;;4.13;;
6979;SDS011;3530;52.832;10.680;2022-11-24T07:53:50;7.65;;;4.47;;
6979;SDS011;3530;52.832;10.680;2022-11-24T07:56:36;5.03;;;4.53;;
6979;SDS011;3530;52.832;10.680;2022-11-24T07:59:22;7.70;;;4.43;;
6979;SDS011;3530;52.832;10.680;2022-11-24T08:02:08;8.27;;;4.45;;
6979;SDS011;3530;52.832;10.680;2022-11-24T08:04:56;5.28;;;4.07;;
6979;SDS011;3530;52.832;10.680;2022-11-24T08:07:41;5.30;;;4.35;;
6979;SDS011;3530;52.832;10.680;2022-11-24T08:10:27;8.13;;;4.57;;
6979;SDS011;3530;52.832;10.680;2022-11-24T08:13:13;5.63;;;4.35;;
6979;SDS011;3530;52.832;10.680;2022-11-24T08:16:02;5.35;;;3.92;;
6979;SDS011;3530;52.832;10.680;2022-11-24T08:18:48;9.60;;;3.85;;
6979;SDS011;3530;52.832;10.680;2022-11-24T08:21:35;5.63;;;3.55;;
6979;SDS011;3530;52.832;10.680;2022-11-24T08:24:21;8.73;;;4.55;;
6979;SDS011;3530;52.832;10.680;2022-11-24T08:27:06;7.25;;;4.47;;
6979;SDS011;3530;52.832;10.680;2022-11-24T08:29:52;5.13;;;3.67;;
6979;SDS011;3530;52.832;10.680;2022-11-24T08:32:38;4.13;;;3.80;;
6979;SDS011;3530;52.832;10.680;2022-11-24T08:35:23;4.18;;;3.80;;
6979;SDS011;3530;52.832;10.680;2022-11-24T08:38:09;7.60;;;4.20;;
6979;SDS011;3530;52.832;10.680;2022-11-24T08:40:58;4.13;;;3.83;;
6979;SDS011;3530;52.832;10.680;2022-11-24T08:43:45;3.55;;;3.22;;
6979;SDS011;3530;52.832;10.680;2022-11-24T08:46:30;5.00;;;3.38;;
6979;SDS011;3530;52.832;10.680;2022-11-24T08:49:16;4.88;;;3.60;;
6979;SDS011;3530;52.832;10.680;2022-11-24T08:52:03;4.90;;;3.78;;
6979;SDS011;3530;52.832;10.680;2022-11-24T08:54:48;4.07;;;3.72;;
6979;SDS011;3530;52.832;10.680;2022-11-24T08:57:34;3.83;;;3.53;;
6979;SDS011;3530;52.832;10.680;2022-11-24T09:00:20;5.07;;;3.58;;
6979;SDS011;3530;52.832;10.680;2022-11-24T09:03:08;5.85;;;3.35;;
6979;SDS011;3530;52.832;10.680;2022-11-24T09:05:55;3.72;;;3.45;;
6979;SDS011;3530;52.832;10.680;2022-11-24T09:08:41;5.40;;;3.80;;
6979;SDS011;3530;52.832;10.680;2022-11-24T09:11:27;8.30;;;3.85;;
6979;SDS011;3530;52.832;10.680;2022-11-24T09:14:12;8.05;;;4.32;;
6979;SDS011;3530;52.832;10.680;2022-11-24T09:16:58;4.65;;;3.78;;
6979;SDS011;3530;52.832;10.680;2022-11-24T09:19:44;4.40;;;3.13;;
6979;SDS011;3530;52.832;10.680;2022-11-24T09:22:29;7.25;;;5.03;;
6979;SDS011;3530;52.832;10.680;2022-11-24T09:25:15;3.90;;;3.50;;
6979;SDS011;3530;52.832;10.680;2022-11-24T09:28:01;4.35;;;3.95;;
6979;SDS011;3530;52.832;10.680;2022-11-24T09:30:47;8.30;;;3.60;;
6979;SDS011;3530;52.832;10.680;2022-11-24T09:33:33;7.35;;;4.03;;
6979;SDS011;3530;52.832;10.680;2022-11-24T09:36:19;5.82;;;4.22;;
6979;SDS011;3530;52.832;10.680;2022-11-24T09:39:05;3.70;;;3.38;;
6979;SDS011;3530;52.832;10.680;2022-11-24T09:48:29;5.45;;;4.18;;
6979;SDS011;3530;52.832;10.680;2022-11-24T09:51:35;4.60;;;3.67;;
6979;SDS011;3530;52.832;10.680;2022-11-24T09:54:22;3.38;;;3.08;;
6979;SDS011;3530;52.832;10.680;2022-11-24T09:57:10;3.47;;;3.28;;
6979;SDS011;3530;52.832;10.680;2022-11-24T09:59:58;6.07;;;3.25;;
6979;SDS011;3530;52.832;10.680;2022-11-24T10:02:46;3.63;;;3.33;;
6979;SDS011;3530;52.832;10.680;2022-11-24T10:05:33;3.38;;;3.08;;
6979;SDS011;3530;52.832;10.680;2022-11-24T10:11:17;3.50;;;3.30;;
6979;SDS011;3530;52.832;10.680;2022-11-24T10:32:19;3.60;;;3.20;;
6979;SDS011;3530;52.832;10.680;2022-11-24T10:35:17;3.60;;;3.30;;
6979;SDS011;3530;52.832;10.680;2022-11-24T10:43:58;7.00;;;3.63;;
6979;SDS011;3530;52.832;10.680;2022-11-24T10:46:44;3.95;;;3.22;;
6979;SDS011;3530;52.832;10.680;2022-11-24T10:49:31;5.70;;;3.47;;
6979;SDS011;3530;52.832;10.680;2022-11-24T10:52:17;6.18;;;3.67;;
6979;SDS011;3530;52.832;10.680;2022-11-24T10:55:03;3.45;;;3.05;;
6979;SDS011;3530;52.832;10.680;2022-11-24T10:57:50;4.30;;;3.05;;
6979;SDS011;3530;52.832;10.680;2022-11-24T11:00:35;10.23;;;7.57;;
6979;SDS011;3530;52.832;10.680;2022-11-24T11:03:22;6.90;;;3.90;;
6979;SDS011;3530;52.832;10.680;2022-11-24T11:06:13;6.57;;;4.57;;
6979;SDS011;3530;52.832;10.680;2022-11-24T11:09:14;6.65;;;3.40;;
6979;SDS011;3530;52.832;10.680;2022-11-24T11:12:10;4.07;;;3.75;;
6979;SDS011;3530;52.832;10.680;2022-11-24T11:18:17;7.03;;;4.03;;
6979;SDS011;3530;52.832;10.680;2022-11-24T11:21:03;10.43;;;4.53;;
6979;SDS011;3530;52.832;10.680;2022-11-24T11:23:49;14.05;;;7.05;;
6979;SDS011;3530;52.832;10.680;2022-11-24T11:26:36;7.88;;;5.70;;
6979;SDS011;3530;52.832;10.680;2022-11-24T11:29:22;10.85;;;6.68;;
6979;SDS011;3530;52.832;10.680;2022-11-24T11:35:10;5.53;;;4.90;;
6979;SDS011;3530;52.832;10.680;2022-11-24T11:37:57;11.27;;;5.22;;
6979;SDS011;3530;52.832;10.680;2022-11-24T11:40:48;8.07;;;5.63;;
6979;SDS011;3530;52.832;10.680;2022-11-24T11:43:36;9.27;;;5.15;;
6979;SDS011;3530;52.832;10.680;2022-11-24T11:46:25;9.15;;;5.65;;
6979;SDS011;3530;52.832;10.680;2022-11-24T11:49:13;10.20;;;5.50;;
6979;SDS011;3530;52.832;10.680;2022-11-24T11:52:02;8.57;;;5.07;;
6979;SDS011;3530;52.832;10.680;2022-11-24T12:01:11;7.30;;;4.70;;
6979;SDS011;3530;52.832;10.680;2022-11-24T12:04:15;5.15;;;4.35;;
6979;SDS011;3530;52.832;10.680;2022-11-24T12:25:56;6.60;;;4.10;;
6979;SDS011;3530;52.832;10.680;2022-11-24T12:34:28;5.28;;;4.10;;
6979;SDS011;3530;52.832;10.680;2022-11-24T12:46:40;7.93;;;4.10;;
6979;SDS011;3530;52.832;10.680;2022-11-24T12:53:03;6.03;;;3.85;;
6979;SDS011;3530;52.832;10.680;2022-11-24T12:56:03;5.85;;;3.45;;
6979;SDS011;3530;52.832;10.680;2022-11-24T12:58:55;6.43;;;3.00;;
6979;SDS011;3530;52.832;10.680;2022-11-24T13:01:58;5.97;;;3.63;;
6979;SDS011;3530;52.832;10.680;2022-11-24T13:07:57;5.60;;;3.55;;
6979;SDS011;3530;52.832;10.680;2022-11-24T13:10:44;4.00;;;3.42;;
6979;SDS011;3530;52.832;10.680;2022-11-24T13:13:53;4.07;;;3.13;;
6979;SDS011;3530;52.832;10.680;2022-11-24T13:16:48;4.25;;;3.38;;
6979;SDS011;3530;52.832;10.680;2022-11-24T13:19:37;4.38;;;3.30;;
6979;SDS011;3530;52.832;10.680;2022-11-24T13:22:25;5.60;;;3.25;;
6979;SDS011;3530;52.832;10.680;2022-11-24T13:25:25;3.83;;;3.05;;
6979;SDS011;3530;52.832;10.680;2022-11-24T13:28:53;7.18;;;3.60;;
6979;SDS011;3530;52.832;10.680;2022-11-24T13:40:37;7.55;;;3.40;;
6979;SDS011;3530;52.832;10.680;2022-11-24T13:43:25;5.18;;;3.15;;
6979;SDS011;3530;52.832;10.680;2022-11-24T13:46:11;4.18;;;3.30;;
6979;SDS011;3530;52.832;10.680;2022-11-24T13:48:57;3.20;;;2.70;;
6979;SDS011;3530;52.832;10.680;2022-11-24T13:51:43;3.67;;;2.95;;
6979;SDS011;3530;52.832;10.680;2022-11-24T13:54:29;2.88;;;2.67;;
6979;SDS011;3530;52.832;10.680;2022-11-24T13:57:33;5.50;;;3.17;;
6979;SDS011;3530;52.832;10.680;2022-11-24T14:00:23;3.28;;;3.03;;
6979;SDS011;3530;52.832;10.680;2022-11-24T14:03:20;5.72;;;3.10;;
6979;SDS011;3530;52.832;10.680;2022-11-24T14:06:14;3.42;;;2.90;;
6979;SDS011;3530;52.832;10.680;2022-11-24T14:09:13;3.67;;;3.05;;
6979;SDS011;3530;52.832;10.680;2022-11-24T14:15:13;5.63;;;3.03;;
6979;SDS011;3530;52.832;10.680;2022-11-24T14:18:18;3.80;;;2.90;;
6979;SDS011;3530;52.832;10.680;2022-11-24T14:21:25;3.50;;;3.10;;
6979;SDS011;3530;52.832;10.680;2022-11-24T14:27:36;3.55;;;3.05;;
6979;SDS011;3530;52.832;10.680;2022-11-24T14:30:22;4.47;;;3.38;;
6979;SDS011;3530;52.832;10.680;2022-11-24T14:33:09;7.25;;;3.22;;
6979;SDS011;3530;52.832;10.680;2022-11-24T14:35:56;6.28;;;3.05;;
6979;SDS011;3530;52.832;10.680;2022-11-24T14:38:42;3.30;;;2.72;;
6979;SDS011;3530;52.832;10.680;2022-11-24T14:41:28;3.60;;;3.00;;
6979;SDS011;3530;52.832;10.680;2022-11-24T14:50:22;3.20;;;2.80;;
6979;SDS011;3530;52.832;10.680;2022-11-24T14:53:12;5.50;;;2.95;;
6979;SDS011;3530;52.832;10.680;2022-11-24T14:56:09;5.43;;;3.30;;
6979;SDS011;3530;52.832;10.680;2022-11-24T14:59:22;5.97;;;3.15;;
6979;SDS011;3530;52.832;10.680;2022-11-24T15:05:22;3.42;;;3.08;;
6979;SDS011;3530;52.832;10.680;2022-11-24T15:08:09;4.53;;;3.47;;
6979;SDS011;3530;52.832;10.680;2022-11-24T15:11:02;4.88;;;3.25;;
6979;SDS011;3530;52.832;10.680;2022-11-24T15:13:50;3.78;;;2.97;;
6979;SDS011;3530;52.832;10.680;2022-11-24T15:16:38;7.60;;;3.55;;
6979;SDS011;3530;52.832;10.680;2022-11-24T15:19:25;4.97;;;3.30;;
6979;SDS011;3530;52.832;10.680;2022-11-24T15:22:25;5.65;;;3.13;;
6979;SDS011;3530;52.832;10.680;2022-11-24T15:25:28;3.35;;;3.05;;
6979;SDS011;3530;52.832;10.680;2022-11-24T15:28:17;4.00;;;3.15;;
6979;SDS011;3530;52.832;10.680;2022-11-24T15:31:10;7.25;;;4.50;;
6979;SDS011;3530;52.832;10.680;2022-11-24T15:33:57;4.25;;;2.88;;
6979;SDS011;3530;52.832;10.680;2022-11-24T15:36:42;6.38;;;4.30;;
6979;SDS011;3530;52.832;10.680;2022-11-24T15:39:28;4.75;;;3.25;;
6979;SDS011;3530;52.832;10.680;2022-11-24T15:42:14;4.43;;;3.42;;
6979;SDS011;3530;52.832;10.680;2022-11-24T15:44:59;3.60;;;3.22;;
6979;SDS011;3530;52.832;10.680;2022-11-24T15:47:45;4.03;;;3.28;;
6979;SDS011;3530;52.832;10.680;2022-11-24T15:50:31;4.80;;;3.05;;
6979;SDS011;3530;52.832;10.680;2022-11-24T15:53:19;4.40;;;3.05;;
6979;SDS011;3530;52.832;10.680;2022-11-24T15:56:07;5.97;;;3.45;;
6979;SDS011;3530;52.832;10.680;2022-11-24T15:58:56;5.05;;;3.20;;
6979;SDS011;3530;52.832;10.680;2022-11-24T16:01:42;4.00;;;2.95;;
6979;SDS011;3530;52.832;10.680;2022-11-24T16:04:28;8.52;;;3.58;;
6979;SDS011;3530;52.832;10.680;2022-11-24T16:07:14;4.40;;;3.38;;
6979;SDS011;3530;52.832;10.680;2022-11-24T16:09:59;5.07;;;3.08;;
6979;SDS011;3530;52.832;10.680;2022-11-24T16:12:45;4.97;;;2.97;;
6979;SDS011;3530;52.832;10.680;2022-11-24T16:15:31;4.13;;;3.17;;
6979;SDS011;3530;52.832;10.680;2022-11-24T16:18:16;4.40;;;3.78;;
6979;SDS011;3530;52.832;10.680;2022-11-24T16:21:02;3.63;;;3.30;;
6979;SDS011;3530;52.832;10.680;2022-11-24T16:23:48;6.55;;;3.65;;
6979;SDS011;3530;52.832;10.680;2022-11-24T16:26:33;5.93;;;3.80;;
6979;SDS011;3530;52.832;10.680;2022-11-24T16:29:19;3.47;;;3.28;;
6979;SDS011;3530;52.832;10.680;2022-11-24T16:32:07;7.13;;;3.22;;
6979;SDS011;3530;52.832;10.680;2022-11-24T16:34:53;7.85;;;3.08;;
6979;SDS011;3530;52.832;10.680;2022-11-24T16:37:39;4.05;;;3.22;;
6979;SDS011;3530;52.832;10.680;2022-11-24T16:40:24;5.93;;;3.40;;
6979;SDS011;3530;52.832;10.680;2022-11-24T16:43:11;4.07;;;3.17;;
6979;SDS011;3530;52.832;10.680;2022-11-24T16:49:05;7.90;;;6.60;;
6979;SDS011;3530;52.832;10.680;2022-11-24T16:51:57;6.47;;;4.88;;
6979;SDS011;3530;52.832;10.680;2022-11-24T16:54:44;7.97;;;4.32;;
6979;SDS011;3530;52.832;10.680;2022-11-24T16:57:30;4.53;;;3.78;;
6979;SDS011;3530;52.832;10.680;2022-11-24T17:00:15;4.05;;;3.63;;
6979;SDS011;3530;52.832;10.680;2022-11-24T17:03:01;4.18;;;3.38;;
6979;SDS011;3530;52.832;10.680;2022-11-24T17:05:56;3.80;;;3.50;;
6979;SDS011;3530;52.832;10.680;2022-11-24T17:08:43;4.18;;;3.78;;
6979;SDS011;3530;52.832;10.680;2022-11-24T17:11:29;4.57;;;3.28;;
6979;SDS011;3530;52.832;10.680;2022-11-24T17:14:15;4.60;;;3.45;;
6979;SDS011;3530;52.832;10.680;2022-11-24T17:17:01;3.50;;;3.30;;
6979;SDS011;3530;52.832;10.680;2022-11-24T17:19:46;3.92;;;3.58;;
6979;SDS011;3530;52.832;10.680;2022-11-24T17:22:32;5.25;;;4.22;;
6979;SDS011;3530;52.832;10.680;2022-11-24T17:25:18;5.80;;;5.20;;
6979;SDS011;3530;52.832;10.680;2022-11-24T17:28:03;4.07;;;3.72;;
6979;SDS011;3530;52.832;10.680;2022-11-24T17:30:49;3.47;;;3.20;;
6979;SDS011;3530;52.832;10.680;2022-11-24T17:33:35;2.80;;;2.55;;
6979;SDS011;3530;52.832;10.680;2022-11-24T17:36:21;5.00;;;3.00;;
6979;SDS011;3530;52.832;10.680;2022-11-24T17:39:07;3.08;;;2.88;;
6979;SDS011;3530;52.832;10.680;2022-11-24T17:41:53;3.40;;;2.72;;
6979;SDS011;3530;52.832;10.680;2022-11-24T17:44:39;2.95;;;2.75;;
6979;SDS011;3530;52.832;10.680;2022-11-24T17:47:24;3.00;;;2.80;;
6979;SDS011;3530;52.832;10.680;2022-11-24T17:50:11;4.22;;;3.00;;
6979;SDS011;3530;52.832;10.680;2022-11-24T17:52:57;3.08;;;2.78;;
6979;SDS011;3530;52.832;10.680;2022-11-24T17:55:43;4.90;;;3.00;;
6979;SDS011;3530;52.832;10.680;2022-11-24T17:58:29;3.35;;;3.15;;
6979;SDS011;3530;52.832;10.680;2022-11-24T18:01:16;3.65;;;3.35;;
6979;SDS011;3530;52.832;10.680;2022-11-24T18:04:02;3.53;;;3.33;;
6979;SDS011;3530;52.832;10.680;2022-11-24T18:06:48;4.38;;;3.03;;
6979;SDS011;3530;52.832;10.680;2022-11-24T18:09:33;3.50;;;3.20;;
6979;SDS011;3530;52.832;10.680;2022-11-24T18:12:19;3.33;;;3.08;;
6979;SDS011;3530;52.832;10.680;2022-11-24T18:15:05;4.10;;;3.70;;
6979;SDS011;3530;52.832;10.680;2022-11-24T18:17:51;3.03;;;2.88;;
6979;SDS011;3530;52.832;10.680;2022-11-24T18:20:36;4.10;;;3.35;;
6979;SDS011;3530;52.832;10.680;2022-11-24T18:23:22;9.38;;;5.97;;
6979;SDS011;3530;52.832;10.680;2022-11-24T18:26:09;5.45;;;4.60;;
6979;SDS011;3530;52.832;10.680;2022-11-24T18:28:56;3.88;;;3.58;;
6979;SDS011;3530;52.832;10.680;2022-11-24T18:31:42;4.13;;;3.72;;
6979;SDS011;3530;52.832;10.680;2022-11-24T18:34:27;3.67;;;3.10;;
6979;SDS011;3530;52.832;10.680;2022-11-24T18:37:13;3.78;;;3.47;;
6979;SDS011;3530;52.832;10.680;2022-11-24T18:40:00;3.55;;;3.30;;
6979;SDS011;3530;52.832;10.680;2022-11-24T18:42:46;3.58;;;3.28;;
6979;SDS011;3530;52.832;10.680;2022-11-24T18:45:32;4.85;;;4.40;;
6979;SDS011;3530;52.832;10.680;2022-11-24T18:48:17;4.13;;;3.75;;
6979;SDS011;3530;52.832;10.680;2022-11-24T18:51:04;9.32;;;6.72;;
6979;SDS011;3530;52.832;10.680;2022-11-24T18:53:51;12.40;;;8.75;;
6979;SDS011;3530;52.832;10.680;2022-11-24T18:56:42;13.77;;;9.18;;
6979;SDS011;3530;52.832;10.680;2022-11-24T18:59:27;9.77;;;7.15;;
6979;SDS011;3530;52.832;10.680;2022-11-24T19:02:13;8.50;;;5.57;;